TimeCDT,TemperatureF,Dew PointF,Humidity,Sea Level PressureIn,VisibilityMPH,Wind Direction,Wind SpeedMPH,Gust SpeedMPH,PrecipitationIn,Events,Conditions,WindDirDegrees,DateUTC
12:53 AM,62.1,60.1,93,30.16,8.0,Calm,Calm,-,N/A,,Clear,0,2012-10-04 05:53:00
1:43 AM,64.4,60.8,88,30.17,9.0,Calm,Calm,-,N/A,,Partly Cloudy,0,2012-10-04 06:43:00
1:53 AM,64.0,60.1,87,30.17,9.0,Calm,Calm,-,N/A,,Scattered Clouds,0,2012-10-04 06:53:00
2:53 AM,63.0,60.1,90,30.17,7.0,Calm,Calm,-,N/A,,Clear,0,2012-10-04 07:53:00
3:33 AM,64.4,60.8,88,30.18,6.0,Calm,Calm,-,N/A,,Scattered Clouds,0,2012-10-04 08:33:00
3:42 AM,64.4,62.6,94,30.18,5.0,Calm,Calm,-,N/A,,Mostly Cloudy,0,2012-10-04 08:42:00
3:53 AM,64.9,62.1,90,30.18,4.0,Calm,Calm,-,N/A,,Overcast,0,2012-10-04 08:53:00
4:40 AM,64.4,62.6,94,30.19,1.8,NNE,3.5,-,N/A,,Overcast,30,2012-10-04 09:40:00
4:48 AM,64.4,62.6,94,30.20,0.5,NE,4.6,-,N/A,Fog,Fog,50,2012-10-04 09:48:00
4:53 AM,64.0,63.0,96,30.19,0.2,Variable,3.5,-,N/A,Fog,Fog,0,2012-10-04 09:53:00
5:35 AM,64.4,62.6,94,30.21,0.2,Calm,Calm,-,N/A,Fog,Fog,0,2012-10-04 10:35:00
5:53 AM,64.0,62.1,93,30.21,0.2,Calm,Calm,-,N/A,Fog,Fog,0,2012-10-04 10:53:00
6:41 AM,64.4,62.6,94,30.23,0.2,Calm,Calm,-,N/A,Fog,Fog,0,2012-10-04 11:41:00
6:53 AM,64.9,63.0,93,30.22,0.2,Calm,Calm,-,N/A,Fog,Fog,0,2012-10-04 11:53:00
7:53 AM,66.0,64.0,93,30.24,0.5,NE,3.5,-,N/A,Fog,Fog,40,2012-10-04 12:53:00
8:15 AM,66.2,64.4,94,30.25,0.8,Calm,Calm,-,N/A,,Overcast,0,2012-10-04 13:15:00
8:46 AM,68.0,66.2,94,30.25,1.0,NNE,4.6,-,N/A,,Overcast,30,2012-10-04 13:46:00
8:53 AM,68.0,66.9,96,30.24,0.8,NE,4.6,-,N/A,,Overcast,40,2012-10-04 13:53:00
9:14 AM,68.0,66.2,94,30.25,1.8,NNE,4.6,-,N/A,,Overcast,20,2012-10-04 14:14:00
9:20 AM,69.8,66.2,88,30.25,3.0,NNE,4.6,-,N/A,,Overcast,20,2012-10-04 14:20:00
9:53 AM,71.1,66.0,84,30.25,10.0,North,4.6,-,N/A,,Overcast,10,2012-10-04 14:53:00
10:27 AM,73.4,66.2,78,30.25,10.0,NNW,6.9,-,N/A,,Overcast,340,2012-10-04 15:27:00
10:45 AM,75.2,66.2,73,30.25,10.0,NE,5.8,-,N/A,,Scattered Clouds,40,2012-10-04 15:45:00
10:53 AM,77.0,66.0,69,30.24,10.0,NE,5.8,-,N/A,,Partly Cloudy,40,2012-10-04 15:53:00
11:53 AM,82.0,64.0,54,30.23,10.0,Variable,4.6,-,N/A,,Clear,0,2012-10-04 16:53:00
12:53 PM,82.9,63.0,51,30.20,10.0,ENE,5.8,-,N/A,,Clear,60,2012-10-04 17:53:00
1:53 PM,84.0,64.9,53,30.19,10.0,Variable,4.6,-,N/A,,Clear,0,2012-10-04 18:53:00
2:53 PM,84.0,66.0,55,30.17,10.0,NE,5.8,-,N/A,,Clear,50,2012-10-04 19:53:00
3:53 PM,84.0,66.0,55,30.17,10.0,Variable,5.8,-,N/A,,Clear,0,2012-10-04 20:53:00
4:53 PM,82.9,66.0,56,30.16,10.0,NNE,4.6,-,N/A,,Clear,20,2012-10-04 21:53:00
5:53 PM,78.1,68.0,71,30.15,10.0,Calm,Calm,-,N/A,,Clear,0,2012-10-04 22:53:00
6:53 PM,75.0,66.9,76,30.16,10.0,North,3.5,-,N/A,,Clear,360,2012-10-04 23:53:00
7:53 PM,71.1,66.0,84,30.17,10.0,Calm,Calm,-,N/A,,Clear,0,2012-10-05 00:53:00
8:53 PM,68.0,64.9,90,30.18,9.0,Calm,Calm,-,N/A,,Clear,0,2012-10-05 01:53:00
9:53 PM,66.0,64.0,93,30.19,5.0,Calm,Calm,-,N/A,,Clear,0,2012-10-05 02:53:00
10:53 PM,66.0,64.0,93,30.19,9.0,Calm,Calm,-,N/A,,Clear,0,2012-10-05 03:53:00
11:53 PM,64.9,63.0,93,30.17,8.0,Calm,Calm,-,N/A,,Clear,0,2012-10-05 04:53:00